createdAt,value
2022-10-05T00:02:19.580Z,11.00
2022-10-05T00:05:20.477Z,10.90
2022-10-05T00:08:15.192Z,12.90
2022-10-05T00:11:03.383Z,10.90
2022-10-05T00:13:52.792Z,10.90
2022-10-05T00:16:40.852Z,10.90
2022-10-05T00:19:31.982Z,10.90
2022-10-05T00:22:22.523Z,10.90
2022-10-05T00:25:14.100Z,10.90
2022-10-05T00:28:02.505Z,10.90
2022-10-05T00:30:51.811Z,10.90
2022-10-05T00:33:39.879Z,10.90
2022-10-05T00:36:27.883Z,10.90
2022-10-05T00:39:15.929Z,10.90
2022-10-05T00:42:35.366Z,10.90
2022-10-05T00:45:29.001Z,10.90
2022-10-05T00:48:29.868Z,10.90
2022-10-05T00:51:26.084Z,10.90
2022-10-05T00:54:27.196Z,10.90
2022-10-05T00:57:28.067Z,10.90
2022-10-05T01:00:19.677Z,10.90
2022-10-05T01:03:13.804Z,11.00
2022-10-05T01:06:13.600Z,11.00
2022-10-05T01:09:12.098Z,11.10
2022-10-05T01:12:07.692Z,11.10
2022-10-05T01:15:03.251Z,12.40
2022-10-05T01:17:56.809Z,11.10
2022-10-05T01:20:54.260Z,11.10
2022-10-05T01:24:18.400Z,11.20
2022-10-05T01:27:22.440Z,11.10
2022-10-05T01:30:14.419Z,11.10
2022-10-05T01:33:10.299Z,11.00
2022-10-05T01:36:07.788Z,11.00
2022-10-05T01:39:05.875Z,10.90
2022-10-05T01:42:00.443Z,10.90
2022-10-05T01:44:55.159Z,10.90
2022-10-05T01:47:47.509Z,10.90
2022-10-05T01:50:48.169Z,10.90
2022-10-05T01:53:47.177Z,10.90
2022-10-05T01:56:42.470Z,10.80
2022-10-05T01:59:44.693Z,10.80
2022-10-05T02:02:36.771Z,10.70
2022-10-05T02:05:31.067Z,10.70
2022-10-05T02:08:24.950Z,10.70
2022-10-05T02:11:15.031Z,10.70
2022-10-05T02:14:08.872Z,10.70
2022-10-05T02:17:00.047Z,10.60
2022-10-05T02:19:52.881Z,10.60
2022-10-05T02:22:46.706Z,10.60
2022-10-05T02:25:38.976Z,10.50
2022-10-05T02:28:32.941Z,10.50
2022-10-05T02:31:24.910Z,10.50
2022-10-05T02:34:27.619Z,10.50
2022-10-05T02:37:25.900Z,10.40
2022-10-05T02:40:24.317Z,10.40
2022-10-05T02:43:23.116Z,10.40
2022-10-05T02:46:20.463Z,10.40
2022-10-05T02:49:19.255Z,10.40
2022-10-05T02:52:12.440Z,10.40
2022-10-05T02:55:09.242Z,10.50
2022-10-05T02:58:02.754Z,10.50
2022-10-05T03:00:56.688Z,10.50
2022-10-05T03:03:52.985Z,10.50
2022-10-05T03:06:49.553Z,10.60
2022-10-05T03:09:42.774Z,10.60
2022-10-05T03:12:50.550Z,10.60
2022-10-05T03:16:03.687Z,10.70
2022-10-05T03:19:05.350Z,10.70
2022-10-05T03:21:59.777Z,10.70
2022-10-05T03:25:01.729Z,10.70
2022-10-05T03:27:56.535Z,10.90
2022-10-05T03:30:53.150Z,10.90
2022-10-05T03:33:47.735Z,11.10
2022-10-05T03:36:45.109Z,10.90
2022-10-05T03:39:40.047Z,10.90
2022-10-05T03:42:36.693Z,10.90
2022-10-05T03:45:31.422Z,10.90
2022-10-05T03:48:26.322Z,11.00
2022-10-05T03:51:22.355Z,11.00
2022-10-05T03:54:20.387Z,11.00
2022-10-05T03:57:12.236Z,11.10
2022-10-05T04:00:04.388Z,11.10
2022-10-05T04:02:59.158Z,11.10
2022-10-05T04:05:51.397Z,11.10
2022-10-05T04:08:48.078Z,11.10
2022-10-05T04:11:41.209Z,11.00
2022-10-05T04:14:35.681Z,11.00
2022-10-05T04:17:32.625Z,10.90
2022-10-05T04:20:25.773Z,10.90
2022-10-05T04:23:23.545Z,10.90
2022-10-05T04:26:14.968Z,10.90
2022-10-05T04:29:11.958Z,10.90
2022-10-05T04:32:20.426Z,11.00
2022-10-05T04:35:39.097Z,11.00
2022-10-05T04:38:44.748Z,11.00
2022-10-05T04:41:49.316Z,11.10
2022-10-05T04:45:03.913Z,11.10
2022-10-05T04:48:07.017Z,11.10
2022-10-05T04:51:09.013Z,11.20
2022-10-05T04:54:05.622Z,11.20
2022-10-05T04:56:59.277Z,11.10
2022-10-05T05:00:02.944Z,11.10
2022-10-05T05:03:14.246Z,11.10
2022-10-05T05:06:17.997Z,11.10
2022-10-05T05:09:23.065Z,11.10
2022-10-05T05:12:24.963Z,11.10
2022-10-05T05:15:31.626Z,11.10
2022-10-05T05:18:49.543Z,11.10
2022-10-05T05:21:47.740Z,11.10
2022-10-05T05:24:47.408Z,11.10
2022-10-05T05:27:43.830Z,11.10
2022-10-05T05:30:39.560Z,11.10
2022-10-05T05:33:39.493Z,11.00
2022-10-05T05:36:47.944Z,11.10
2022-10-05T05:39:46.372Z,11.10
2022-10-05T05:42:43.331Z,11.20
2022-10-05T05:45:40.881Z,11.20
2022-10-05T05:48:33.836Z,11.20
2022-10-05T05:51:27.840Z,11.30
2022-10-05T05:54:25.450Z,11.30
2022-10-05T05:57:18.445Z,11.40
2022-10-05T06:00:28.791Z,11.40
2022-10-05T06:03:22.439Z,11.40
2022-10-05T06:06:12.307Z,11.40
2022-10-05T06:09:03.694Z,11.50
2022-10-05T06:11:54.966Z,11.60
2022-10-05T06:14:49.504Z,11.70
2022-10-05T06:17:42.208Z,11.80
2022-10-05T06:20:36.606Z,12.00
2022-10-05T06:23:30.002Z,12.10
2022-10-05T06:26:57.562Z,12.10
2022-10-05T06:29:59.891Z,12.30
2022-10-05T06:33:06.036Z,12.30
2022-10-05T06:36:05.430Z,12.40
2022-10-05T06:39:20.919Z,12.30
2022-10-05T06:42:19.517Z,12.40
2022-10-05T06:45:18.537Z,12.50
2022-10-05T06:48:17.846Z,12.50
2022-10-05T06:51:16.422Z,12.70
2022-10-05T06:54:12.957Z,12.70
2022-10-05T06:57:09.378Z,12.80
2022-10-05T07:00:01.740Z,12.80
2022-10-05T07:02:57.051Z,12.80
2022-10-05T07:05:54.933Z,12.90
2022-10-05T07:09:09.416Z,13.00
2022-10-05T07:12:13.678Z,13.00
2022-10-05T07:15:18.790Z,13.00
2022-10-05T07:18:26.959Z,13.00
2022-10-05T07:21:24.334Z,13.00
2022-10-05T07:24:29.258Z,13.00
2022-10-05T07:27:20.661Z,13.00
2022-10-05T07:30:11.951Z,13.10
2022-10-05T07:33:09.330Z,13.20
2022-10-05T07:36:24.176Z,13.40
2022-10-05T07:39:20.212Z,13.50
2022-10-05T07:42:19.241Z,13.70
2022-10-05T07:45:15.966Z,13.80
2022-10-05T07:48:12.864Z,13.90
2022-10-05T07:51:06.464Z,14.00
2022-10-05T07:54:02.886Z,14.10
2022-10-05T07:56:56.206Z,14.40
2022-10-05T07:59:50.048Z,14.60
2022-10-05T08:02:45.212Z,14.60
2022-10-05T08:05:35.959Z,14.70
2022-10-05T08:08:36.276Z,14.80
2022-10-05T08:11:31.989Z,14.70
2022-10-05T08:14:25.347Z,14.60
2022-10-05T08:17:25.498Z,14.50
2022-10-05T08:20:33.122Z,14.50
2022-10-05T08:23:26.440Z,14.70
2022-10-05T08:26:25.003Z,14.80
2022-10-05T08:29:18.113Z,15.00
2022-10-05T08:32:13.234Z,15.20
2022-10-05T08:35:12.216Z,15.50
2022-10-05T08:38:01.227Z,15.70
2022-10-05T08:41:14.722Z,15.70
2022-10-05T08:44:43.308Z,15.70
2022-10-05T08:47:54.222Z,15.90
2022-10-05T08:51:08.176Z,15.90
2022-10-05T08:54:22.782Z,16.10
2022-10-05T08:57:44.250Z,16.30
2022-10-05T09:00:46.834Z,16.40
2022-10-05T09:03:51.810Z,16.60
2022-10-05T09:07:15.390Z,16.80
2022-10-05T09:10:42.480Z,16.90
2022-10-05T09:13:44.106Z,16.90
2022-10-05T09:17:03.288Z,17.10
2022-10-05T09:20:10.822Z,17.10
2022-10-05T09:23:06.064Z,17.00
2022-10-05T09:26:00.421Z,16.90
2022-10-05T09:29:05.587Z,16.60
2022-10-05T09:32:12.955Z,16.40
2022-10-05T09:35:22.024Z,16.20
2022-10-05T09:38:20.835Z,16.00
2022-10-05T09:41:50.562Z,16.00
2022-10-05T09:45:07.738Z,16.20
2022-10-05T09:48:23.885Z,16.30
2022-10-05T09:51:48.800Z,16.50
2022-10-05T09:55:08.863Z,16.70
2022-10-05T09:58:28.266Z,16.80
2022-10-05T10:01:34.843Z,16.90
2022-10-05T10:04:43.734Z,17.00
2022-10-05T10:07:50.248Z,17.20
2022-10-05T10:11:02.418Z,17.30
2022-10-05T10:14:06.609Z,17.60
2022-10-05T10:17:11.872Z,17.90
2022-10-05T10:20:22.510Z,17.90
2022-10-05T10:23:29.704Z,18.00
2022-10-05T10:26:47.638Z,18.20
2022-10-05T10:29:51.186Z,18.50
2022-10-05T10:33:18.703Z,18.60
2022-10-05T10:36:14.626Z,18.70
2022-10-05T10:39:07.764Z,18.60
2022-10-05T10:42:11.300Z,18.70
2022-10-05T10:45:20.627Z,18.50
2022-10-05T10:48:11.823Z,18.40
2022-10-05T10:51:18.294Z,18.40
2022-10-05T10:54:29.481Z,18.30
2022-10-05T10:57:25.585Z,18.40
2022-10-05T11:00:41.750Z,18.50
2022-10-05T11:03:59.624Z,18.70
2022-10-05T11:07:27.403Z,18.80
2022-10-05T11:10:44.184Z,18.90
2022-10-05T11:13:52.655Z,18.90
2022-10-05T11:17:07.534Z,18.90
2022-10-05T11:20:18.400Z,19.10
2022-10-05T11:23:38.597Z,19.30
2022-10-05T11:26:47.075Z,19.70
2022-10-05T11:30:03.185Z,20.00
2022-10-05T11:33:37.037Z,20.30
2022-10-05T11:37:12.846Z,20.40
2022-10-05T11:40:34.328Z,20.20
2022-10-05T11:43:58.303Z,19.90
2022-10-05T11:46:55.644Z,19.50
2022-10-05T11:49:49.387Z,19.50
2022-10-05T11:52:44.841Z,19.30
2022-10-05T11:55:38.382Z,19.20
2022-10-05T11:58:32.464Z,18.90
2022-10-05T12:01:28.060Z,18.60
2022-10-05T12:04:20.846Z,18.50
2022-10-05T12:07:21.474Z,18.40
2022-10-05T12:10:24.709Z,18.40
2022-10-05T12:13:22.692Z,18.50
2022-10-05T12:16:18.298Z,18.60
2022-10-05T12:19:13.428Z,18.70
2022-10-05T12:22:07.036Z,18.70
2022-10-05T12:25:19.088Z,18.70
2022-10-05T12:28:12.830Z,18.90
2022-10-05T12:31:12.614Z,18.80
2022-10-05T12:34:08.240Z,18.90
2022-10-05T12:37:04.079Z,18.90
2022-10-05T12:39:59.321Z,19.00
2022-10-05T12:42:55.923Z,19.10
2022-10-05T12:45:55.261Z,19.10
2022-10-05T12:49:05.858Z,19.20
2022-10-05T12:51:58.504Z,19.30
2022-10-05T12:54:52.174Z,19.30
2022-10-05T12:57:51.017Z,19.30
2022-10-05T13:00:49.052Z,19.30
2022-10-05T13:03:40.849Z,19.30
2022-10-05T13:06:39.063Z,19.30
2022-10-05T13:09:33.718Z,19.40
2022-10-05T13:12:35.945Z,19.40
2022-10-05T13:15:30.538Z,19.50
2022-10-05T13:18:28.784Z,19.70
2022-10-05T13:21:20.418Z,19.70
2022-10-05T13:24:18.875Z,19.90
2022-10-05T13:27:14.681Z,20.10
2022-10-05T13:30:05.671Z,20.20
2022-10-05T13:32:58.205Z,20.80
2022-10-05T13:35:53.751Z,22.20
2022-10-05T13:38:54.135Z,22.90
2022-10-05T13:41:51.784Z,22.90
2022-10-05T13:44:50.357Z,22.60
2022-10-05T13:47:48.601Z,22.20
2022-10-05T13:50:43.971Z,21.70
2022-10-05T13:53:40.712Z,21.40
2022-10-05T13:56:32.023Z,21.30
2022-10-05T13:59:28.680Z,21.20
2022-10-05T14:02:21.491Z,21.10
2022-10-05T14:05:18.023Z,21.00
2022-10-05T14:08:18.284Z,21.00
2022-10-05T14:11:22.677Z,21.50
2022-10-05T14:14:17.069Z,22.90
2022-10-05T14:17:16.270Z,24.00
2022-10-05T14:20:18.789Z,25.00
2022-10-05T14:23:17.353Z,26.00
2022-10-05T14:26:19.790Z,26.90
2022-10-05T14:29:18.852Z,28.00
2022-10-05T14:32:16.107Z,28.30
2022-10-05T14:35:16.094Z,27.20
2022-10-05T14:38:19.154Z,26.10
2022-10-05T14:41:17.715Z,25.30
2022-10-05T14:44:27.702Z,24.70
2022-10-05T14:47:23.761Z,24.20
2022-10-05T14:50:17.921Z,23.70
2022-10-05T14:53:16.644Z,23.30
2022-10-05T14:56:18.469Z,22.90
2022-10-05T14:59:27.689Z,22.50
2022-10-05T15:02:52.469Z,22.00
2022-10-05T15:05:45.897Z,21.30
2022-10-05T15:08:45.853Z,20.80
2022-10-05T15:11:42.534Z,20.40
2022-10-05T15:14:32.929Z,20.10
2022-10-05T15:17:26.987Z,19.80
2022-10-05T15:20:24.423Z,19.60
2022-10-05T15:23:24.446Z,19.50
2022-10-05T15:26:36.153Z,19.30
2022-10-05T15:29:47.306Z,19.20
2022-10-05T15:32:58.817Z,19.10
2022-10-05T15:35:56.670Z,19.00
2022-10-05T15:39:00.593Z,18.80
2022-10-05T15:42:00.288Z,18.70
2022-10-05T15:44:58.916Z,18.60
2022-10-05T15:47:54.006Z,18.40
2022-10-05T15:50:56.798Z,18.40
2022-10-05T15:54:13.308Z,18.30
2022-10-05T15:57:09.244Z,18.20
2022-10-05T16:00:02.120Z,18.10
2022-10-05T16:02:56.133Z,17.90
2022-10-05T16:06:06.513Z,17.80
2022-10-05T16:09:06.673Z,17.80
2022-10-05T16:12:04.024Z,17.70
2022-10-05T16:15:01.020Z,17.60
2022-10-05T16:18:18.435Z,17.50
2022-10-05T16:21:15.846Z,17.50
2022-10-05T16:24:15.577Z,17.40
2022-10-05T16:27:11.293Z,17.30
2022-10-05T16:30:04.576Z,17.10
2022-10-05T16:33:02.094Z,17.00
2022-10-05T16:35:57.745Z,16.90
2022-10-05T16:38:55.178Z,16.80
2022-10-05T16:41:52.246Z,16.70
2022-10-05T16:44:48.002Z,16.60
2022-10-05T16:47:47.444Z,16.40
2022-10-05T16:50:44.897Z,16.30
2022-10-05T16:53:37.818Z,16.20
2022-10-05T16:56:37.518Z,16.10
2022-10-05T16:59:49.909Z,16.00
2022-10-05T17:02:55.217Z,15.90
2022-10-05T17:06:15.542Z,15.80
2022-10-05T17:09:24.512Z,15.70
2022-10-05T17:12:26.702Z,15.60
2022-10-05T17:15:33.482Z,15.50
2022-10-05T17:18:29.607Z,15.40
2022-10-05T17:21:28.305Z,15.30
2022-10-05T17:24:28.185Z,15.20
2022-10-05T17:27:26.665Z,15.10
2022-10-05T17:30:23.553Z,14.70
2022-10-05T17:33:27.461Z,14.90
2022-10-05T17:36:20.313Z,14.80
2022-10-05T17:39:15.990Z,14.80
2022-10-05T17:42:39.632Z,14.70
2022-10-05T17:45:51.834Z,14.70
2022-10-05T17:49:06.689Z,14.60
2022-10-05T17:52:23.329Z,14.50
2022-10-05T17:55:26.492Z,14.40
2022-10-05T17:59:00.299Z,14.30
2022-10-05T18:02:15.644Z,14.30
2022-10-05T18:05:23.194Z,14.20
2022-10-05T18:08:38.206Z,14.10
2022-10-05T18:11:39.460Z,14.10
2022-10-05T18:14:27.473Z,14.10
2022-10-05T18:17:15.577Z,14.00
2022-10-05T18:20:14.741Z,14.00
2022-10-05T18:23:35.899Z,13.90
2022-10-05T18:26:35.646Z,14.00
2022-10-05T18:29:55.908Z,13.90
2022-10-05T18:33:04.133Z,13.90
2022-10-05T18:36:01.540Z,13.90
2022-10-05T18:38:58.469Z,13.80
2022-10-05T18:41:55.750Z,13.80
2022-10-05T18:44:47.108Z,13.70
2022-10-05T18:47:44.849Z,13.70
2022-10-05T18:50:39.889Z,13.80
2022-10-05T18:53:39.760Z,13.80
2022-10-05T18:56:37.142Z,13.80
2022-10-05T18:59:40.300Z,13.80
2022-10-05T19:02:35.289Z,13.80
2022-10-05T19:05:47.583Z,13.80
2022-10-05T19:08:43.857Z,13.90
2022-10-05T19:11:40.872Z,13.90
2022-10-05T19:14:36.715Z,13.90
2022-10-05T19:17:26.726Z,14.00
2022-10-05T19:20:22.021Z,14.00
2022-10-05T19:23:42.384Z,14.10
2022-10-05T19:26:51.727Z,14.20
2022-10-05T19:29:56.312Z,14.20
2022-10-05T19:32:59.622Z,14.30
2022-10-05T19:35:59.805Z,14.30
2022-10-05T19:38:59.880Z,14.30
2022-10-05T19:42:04.530Z,14.30
2022-10-05T19:45:03.096Z,14.30
2022-10-05T19:48:07.405Z,14.30
2022-10-05T19:50:57.992Z,14.30
2022-10-05T19:53:49.984Z,14.30
2022-10-05T19:56:49.477Z,14.30
2022-10-05T19:59:40.740Z,14.30
2022-10-05T20:02:28.875Z,14.20
2022-10-05T20:05:17.148Z,14.20
2022-10-05T20:08:05.950Z,14.30
2022-10-05T20:11:08.734Z,14.30
2022-10-05T20:14:19.407Z,14.30
2022-10-05T20:17:44.046Z,14.30
2022-10-05T20:20:38.200Z,14.40
2022-10-05T20:23:27.954Z,14.50
2022-10-05T20:26:58.447Z,14.50
2022-10-05T20:29:46.839Z,14.60
2022-10-05T20:32:36.202Z,14.50
2022-10-05T20:35:26.215Z,14.50
2022-10-05T20:38:14.174Z,14.60
2022-10-05T20:41:02.279Z,14.60
2022-10-05T20:43:50.306Z,14.60
2022-10-05T20:46:38.341Z,14.60
2022-10-05T20:49:28.081Z,14.70
2022-10-05T20:52:16.141Z,14.80
2022-10-05T20:55:04.305Z,14.80
2022-10-05T20:57:52.277Z,14.80
2022-10-05T21:00:57.892Z,14.80
2022-10-05T21:03:46.455Z,14.70
2022-10-05T21:06:35.861Z,14.80
2022-10-05T21:09:23.866Z,14.90
2022-10-05T21:12:12.349Z,14.90
2022-10-05T21:15:01.434Z,14.90
2022-10-05T21:17:50.801Z,14.80
2022-10-05T21:20:38.785Z,14.90
2022-10-05T21:23:28.229Z,14.80
2022-10-05T21:26:17.321Z,14.90
2022-10-05T21:29:10.244Z,14.90
2022-10-05T21:32:00.263Z,14.90
2022-10-05T21:34:48.320Z,14.90
2022-10-05T21:37:36.324Z,14.90
2022-10-05T21:40:25.736Z,14.90
2022-10-05T21:43:14.229Z,14.90
2022-10-05T21:46:02.567Z,14.90
2022-10-05T21:48:51.225Z,14.80
2022-10-05T21:51:40.166Z,14.80
2022-10-05T21:54:28.614Z,14.80
2022-10-05T21:57:18.583Z,14.80
2022-10-05T22:00:09.398Z,14.70
2022-10-05T22:02:57.444Z,14.70
2022-10-05T22:05:45.520Z,14.80
2022-10-05T22:08:35.894Z,14.70
2022-10-05T22:11:23.938Z,14.80
2022-10-05T22:14:15.813Z,14.70
2022-10-05T22:17:03.858Z,14.60
2022-10-05T22:19:52.358Z,14.60
2022-10-05T22:22:40.316Z,14.50
2022-10-05T22:25:28.336Z,14.50
2022-10-05T22:28:17.572Z,14.50
2022-10-05T22:31:09.476Z,14.40
2022-10-05T22:33:57.475Z,14.50
2022-10-05T22:36:45.895Z,14.50
2022-10-05T22:39:33.939Z,14.20
2022-10-05T22:42:22.276Z,14.40
2022-10-05T22:45:10.456Z,14.30
2022-10-05T22:47:59.718Z,14.20
2022-10-05T22:50:48.085Z,14.20
2022-10-05T22:53:36.309Z,14.20
2022-10-05T22:56:24.386Z,14.20
2022-10-05T22:59:12.408Z,14.10
2022-10-05T23:02:00.533Z,14.10
2022-10-05T23:04:49.949Z,14.20
2022-10-05T23:07:38.694Z,14.10
2022-10-05T23:10:26.711Z,14.20
2022-10-05T23:13:15.866Z,14.20
2022-10-05T23:16:08.054Z,14.20
2022-10-05T23:18:56.847Z,14.30
2022-10-05T23:21:46.172Z,14.30
2022-10-05T23:24:35.386Z,14.30
2022-10-05T23:27:23.422Z,14.30
2022-10-05T23:30:12.918Z,14.20
2022-10-05T23:33:00.939Z,14.20
2022-10-05T23:35:49.003Z,14.20
2022-10-05T23:38:38.401Z,14.20
2022-10-05T23:41:26.577Z,14.30
2022-10-05T23:44:14.649Z,14.30
2022-10-05T23:47:02.670Z,14.30
2022-10-05T23:49:50.671Z,15.50
2022-10-05T23:52:38.930Z,14.20
2022-10-05T23:55:28.283Z,14.20
2022-10-05T23:58:16.403Z,14.20
